Аэропорт: Черновцы. Черновцы

ICAO: UKLN

METAR:
2019/03/26 10:00
UKLN 261000Z 29007MPS 250V340 CAVOK 06/M00 Q1017 R33/290360 NOSIG
METAR:
2018/06/09 15:36
TAF 
      AMD TAF 
      AMD UKLN 091529Z 0915/1024 04005MPS 9999 BKN033CB TX28/0916Z TN17/0924Z 
      TEMPO 0916/0921 VRB09G14MPS 2100 -TSRA BKN007 BKN020CB